Terminal Aerodrome Forecast
Issued by NWS Shreveport, LA

Home | Current Version | Previous Version | Text Only | Print | Product List | Glossary On
Versions: 1 2 3 4 5 6 7 8 9 10 11 12 13
000
FTUS44 KSHV 162300 RRA
TAFMLU
TAF
KMLU 162341Z 1700/1724 04005KT P6SM SCT150 SCT250
     FM170200 VRB03KT P6SM SCT250
      TEMPO 1709/1713 4SM BR
     FM171500 07004KT P6SM FEW035 SCT250
     FM172000 09004KT P6SM SCT050 SCT250=

USA.gov is the U.S. government's official web portal to all federal, state and local government web resources and services.